Karluk, AK (99608)

8:20 PM AKST on December 04, 2016 (GMT -0900)
Akhiok AP, Akhiok, AK | | Change Station

Elev 43 ft 56.94 °N, 154.18 °W | Updated 24 minutes ago

Clear
Clear
18 °F
Feels Like 9 °F
N
7
Wind Variable Wind from North

Today
High -- | Low -- °F
--% Chance of Precip.
Yesterday
High -- | Low -- °F
Precip. -- in
Pressure 30.38 in
Visibility 10.0 miles
Clouds Clear
Windchill 9 °F
Dew Point 13 °F
Humidity 81%
Rainfall 0.00 in
Snow Depth Not available.
9:41 AM 4:35 PM
Waxing Crescent, 28% visible
METAR PAKH 050456Z AUTO 01006KT 10SM CLR M08/M11 A3037 RMK AO2 SLP286 T10781106 FZRANO $
Pressure 30.38 in
Visibility 10.0 miles
Clouds Clear
Windchill 9 °F
Dew Point 13 °F
Humidity 81%
Rainfall 0.00 in
Snow Depth Not available.
9:41 AM 4:35 PM
Waxing Crescent, 28% visible
METAR PAKH 050456Z AUTO 01006KT 10SM CLR M08/M11 A3037 RMK AO2 SLP286 T10781106 FZRANO $

10-Day Weather Forecast

Almanac

Astronomy

Dec. 04, 2016 Rise Set
Actual Time
Civil Twilight
Nautical Twilight
Astronomical Twilight
Moon
Length of Visible Light
Length of Day
Tomorrow will be .
, % of the Moon is Illuminated

Today's Extremes

State Highs State Lows

Community

WunderPhotos

Upload Photos

1,955,765 photos uploaded!

WunderBlog® & News

Nearby

Air Quality

  Air Quality AQ Index Pollutant
Not available.

Snow Depth

Station Depth Elevation

Earthquake Activity

City Distance Mag. Time & Date
Minimum magnitude displayed is 2.5.

Coastal Water Temperatures

Place Temperature

Stations

Nearby Weather Stations

Station Location Temp. Windchill Dew Point Humidity Wind Precip. Elev Updated Type
                   

Watches & Warnings

There are currently no watches in effect.